Time;durP1;ratioP1;P1;durP2;ratioP2;P2;SDS_P1;SDS_P2;PMS_P1;PMS_P2;Temp;Humidity;BMP_temperature;BMP_pressure;BME280_temperature;BME280_humidity;BME280_pressure;Samples;Min_cycle;Max_cycle;Signal;HPM_P1;HPM_P2
2022/06/16 00:00:16;;;;;;;8.82;5.95;;;15.00;99.90;;;;;;4938405;29;20043;-79
2022/06/16 00:02:43;;;;;;;7.63;6.28;;;15.00;99.90;;;;;;4939660;29;20468;-79
2022/06/16 00:05:12;;;;;;;10.13;5.82;;;15.00;99.90;;;;;;4939544;29;20038;-79
2022/06/16 00:07:38;;;;;;;8.25;6.15;;;14.90;99.90;;;;;;4939445;29;20030;-79
2022/06/16 00:10:05;;;;;;;7.38;5.88;;;14.90;99.90;;;;;;4939582;29;20032;-79
2022/06/16 00:12:30;;;;;;;7.97;5.80;;;14.90;99.90;;;;;;4939275;29;20395;-79
2022/06/16 00:14:56;;;;;;;10.85;6.28;;;14.90;99.90;;;;;;4939374;29;20111;-79
2022/06/16 00:17:22;;;;;;;12.40;6.03;;;14.80;99.90;;;;;;4939559;29;20438;-79
2022/06/16 00:19:48;;;;;;;7.53;6.32;;;14.80;99.90;;;;;;4938959;29;20024;-79
2022/06/16 00:22:13;;;;;;;13.80;6.60;;;14.80;99.90;;;;;;4939380;29;20079;-79
2022/06/16 00:24:39;;;;;;;9.98;6.68;;;14.80;99.90;;;;;;4939279;29;20034;-79
2022/06/16 00:27:05;;;;;;;10.35;6.95;;;14.70;99.90;;;;;;4939346;29;20063;-79
2022/06/16 00:29:30;;;;;;;11.93;6.85;;;14.70;99.90;;;;;;4937989;29;20031;-79
2022/06/16 00:31:56;;;;;;;10.15;6.30;;;14.70;99.90;;;;;;4937720;29;20475;-79
2022/06/16 00:34:22;;;;;;;8.63;6.03;;;14.70;99.90;;;;;;4938241;29;20035;-80
2022/06/16 00:36:47;;;;;;;7.13;6.43;;;14.60;99.90;;;;;;4939384;29;20023;-79
2022/06/16 00:39:13;;;;;;;7.65;6.53;;;14.60;99.90;;;;;;4938892;29;20032;-80
2022/06/16 00:41:39;;;;;;;10.35;6.35;;;14.60;99.90;;;;;;4938949;29;20036;-79
2022/06/16 00:44:43;;;;;;;7.53;6.30;;;14.60;99.90;;;;;;4939151;29;20078;-80
2022/06/16 00:47:09;;;;;;;10.43;6.32;;;14.50;99.90;;;;;;4938958;29;20368;-80
2022/06/16 00:49:38;;;;;;;9.60;6.93;;;14.50;99.90;;;;;;4937825;29;20034;-80
2022/06/16 00:52:11;;;;;;;8.85;6.57;;;14.40;99.90;;;;;;4937604;29;20028;-80
2022/06/16 00:54:43;;;;;;;7.65;6.70;;;14.40;99.90;;;;;;4938811;29;20032;-80
2022/06/16 00:57:16;;;;;;;8.10;5.88;;;14.30;99.90;;;;;;4939019;29;20376;-79
2022/06/16 00:59:43;;;;;;;11.65;7.47;;;14.30;99.90;;;;;;4937410;29;20464;-79
2022/06/16 01:02:09;;;;;;;8.52;6.22;;;14.30;99.90;;;;;;4938383;29;20468;-79
2022/06/16 01:04:51;;;;;;;11.30;6.28;;;14.30;99.90;;;;;;4937252;29;20031;-79
2022/06/16 01:07:21;;;;;;;11.88;6.82;;;14.20;99.90;;;;;;4937160;29;20457;-79
2022/06/16 01:09:48;;;;;;;10.57;7.05;;;14.20;99.90;;;;;;4936901;29;20471;-79
2022/06/16 01:15:31;;;;;;;9.68;6.40;;;14.10;99.90;;;;;;4938108;29;20134;-79
2022/06/16 01:18:41;;;;;;;10.70;6.45;;;14.00;99.90;;;;;;4937925;29;20472;-79
2022/06/16 01:21:22;;;;;;;11.38;6.65;;;14.00;99.90;;;;;;4937391;29;20059;-79
2022/06/16 01:24:05;;;;;;;9.15;6.38;;;14.00;99.90;;;;;;4937924;29;20413;-79
2022/06/16 01:26:37;;;;;;;6.95;6.25;;;13.90;99.90;;;;;;4936844;29;20550;-79
2022/06/16 01:29:21;;;;;;;10.20;7.25;;;13.90;99.90;;;;;;4936654;29;20070;-79
2022/06/16 01:32:12;;;;;;;10.07;6.90;;;13.90;99.90;;;;;;4938125;29;20059;-79
2022/06/16 01:35:10;;;;;;;7.22;6.35;;;13.80;99.90;;;;;;4938009;29;20075;-79
2022/06/16 01:37:39;;;;;;;7.45;6.40;;;13.90;99.90;;;;;;4938231;29;20110;-79
2022/06/16 01:40:18;;;;;;;8.90;6.53;;;13.80;99.90;;;;;;4937878;29;20034;-79
2022/06/16 01:43:02;;;;;;;10.32;7.03;;;13.80;99.90;;;;;;4936528;29;20584;-79
2022/06/16 01:45:36;;;;;;;7.30;6.55;;;13.80;99.90;;;;;;4936562;29;20480;-80
2022/06/16 01:48:02;;;;;;;10.05;6.93;;;13.80;99.90;;;;;;4938114;29;20078;-79
2022/06/16 01:50:33;;;;;;;8.05;6.70;;;13.70;99.90;;;;;;4937630;29;20028;-79
2022/06/16 01:53:09;;;;;;;8.20;6.47;;;13.70;99.90;;;;;;4937835;29;20074;-79
2022/06/16 01:55:40;;;;;;;7.80;7.03;;;13.60;99.90;;;;;;4936417;29;20028;-79
2022/06/16 01:58:18;;;;;;;11.30;6.90;;;13.60;99.90;;;;;;4937530;29;20023;-79
2022/06/16 02:00:45;;;;;;;12.30;7.95;;;13.60;99.90;;;;;;4937645;29;20032;-79
2022/06/16 02:03:19;;;;;;;8.48;6.53;;;13.60;99.90;;;;;;4937732;29;20036;-78
2022/06/16 02:05:58;;;;;;;11.23;6.63;;;13.60;99.90;;;;;;4937321;29;20023;-79
2022/06/16 02:08:34;;;;;;;10.48;7.45;;;13.60;99.90;;;;;;4937478;29;20046;-78
2022/06/16 02:11:04;;;;;;;8.88;7.07;;;13.50;99.90;;;;;;4937348;29;20031;-79
2022/06/16 02:13:34;;;;;;;9.30;6.93;;;13.50;99.90;;;;;;4937152;29;20027;-79
2022/06/16 02:16:10;;;;;;;8.38;7.43;;;13.50;99.90;;;;;;4936929;29;20027;-78
2022/06/16 02:18:40;;;;;;;10.88;7.05;;;13.50;99.90;;;;;;4937352;29;20042;-79
2022/06/16 02:21:20;;;;;;;9.60;6.70;;;13.50;99.90;;;;;;4937080;29;20036;-79
2022/06/16 02:23:46;;;;;;;9.98;7.30;;;13.50;99.90;;;;;;4936943;29;20490;-79
2022/06/16 02:26:12;;;;;;;10.05;7.15;;;13.50;99.90;;;;;;4936674;29;20048;-79
2022/06/16 02:28:51;;;;;;;10.68;7.38;;;13.50;99.90;;;;;;4935645;29;20121;-79
2022/06/16 02:31:41;;;;;;;7.93;7.10;;;13.50;99.90;;;;;;4937009;29;20028;-79
2022/06/16 02:34:28;;;;;;;8.65;7.68;;;13.40;99.90;;;;;;4935620;29;20028;-79
2022/06/16 02:37:04;;;;;;;10.73;7.28;;;13.40;99.90;;;;;;4935457;29;20055;-79
2022/06/16 02:39:35;;;;;;;8.73;7.15;;;13.40;99.90;;;;;;4937190;29;20038;-80
2022/06/16 02:42:39;;;;;;;9.57;6.95;;;13.40;99.90;;;;;;4935700;29;20039;-79
2022/06/16 02:45:40;;;;;;;9.30;6.88;;;13.30;99.90;;;;;;4936843;29;20046;-80
2022/06/16 02:48:24;;;;;;;12.18;7.55;;;13.30;99.90;;;;;;4935865;29;20035;-80
2022/06/16 02:51:05;;;;;;;8.32;6.75;;;13.30;99.90;;;;;;4936976;29;20042;-80
2022/06/16 02:54:10;;;;;;;10.02;6.72;;;13.30;99.90;;;;;;4936803;29;20437;-80
2022/06/16 02:56:57;;;;;;;7.85;7.05;;;13.20;99.90;;;;;;4935786;29;20038;-80
2022/06/16 02:59:28;;;;;;;7.97;6.78;;;13.20;99.90;;;;;;4936755;29;20066;-79
2022/06/16 03:02:03;;;;;;;7.78;6.82;;;13.20;99.90;;;;;;4936639;29;20031;-79
2022/06/16 03:04:41;;;;;;;10.15;7.38;;;13.20;99.90;;;;;;4935322;29;20091;-79
2022/06/16 03:07:11;;;;;;;10.75;6.82;;;13.20;99.90;;;;;;4935680;29;20032;-79
2022/06/16 03:09:37;;;;;;;8.05;7.25;;;13.20;99.90;;;;;;4936589;29;20042;-79
2022/06/16 03:12:07;;;;;;;7.35;6.65;;;13.30;99.90;;;;;;4935513;29;20126;-79
2022/06/16 03:14:33;;;;;;;8.07;7.28;;;13.20;99.90;;;;;;4935262;29;20027;-79
2022/06/16 03:16:59;;;;;;;12.88;6.80;;;13.20;99.90;;;;;;4936640;29;20426;-79
2022/06/16 03:19:24;;;;;;;11.38;7.25;;;13.20;99.90;;;;;;4935057;29;20034;-79
2022/06/16 03:21:50;;;;;;;7.43;6.65;;;13.20;99.90;;;;;;4936394;29;20067;-79
2022/06/16 03:24:17;;;;;;;9.15;8.20;;;13.20;99.90;;;;;;4935066;29;20067;-79
2022/06/16 03:26:43;;;;;;;11.75;7.10;;;13.20;99.90;;;;;;4938435;29;20052;-79
2022/06/16 03:29:08;;;;;;;7.85;6.63;;;13.20;99.90;;;;;;4940347;29;20349;-80
2022/06/16 03:31:34;;;;;;;9.35;7.90;;;13.20;99.90;;;;;;4938992;29;20035;-79
2022/06/16 03:34:00;;;;;;;8.40;7.60;;;13.20;99.90;;;;;;4940177;29;20032;-80
2022/06/16 03:36:26;;;;;;;10.40;7.57;;;13.20;99.90;;;;;;4939652;29;20086;-81
2022/06/16 03:38:51;;;;;;;10.27;6.28;;;13.30;99.90;;;;;;4939791;29;20464;-80
2022/06/16 03:41:17;;;;;;;7.55;6.25;;;13.30;99.90;;;;;;4939769;29;20036;-80
2022/06/16 03:43:43;;;;;;;7.80;7.03;;;13.30;99.90;;;;;;4940041;29;20043;-79
2022/06/16 03:46:11;;;;;;;11.70;6.70;;;13.30;99.90;;;;;;4939994;29;20060;-80
2022/06/16 03:48:37;;;;;;;18.50;7.60;;;13.30;99.90;;;;;;4938751;29;20027;-81
2022/06/16 03:51:05;;;;;;;9.10;6.40;;;13.40;99.90;;;;;;4940253;29;20038;-80
2022/06/16 03:53:32;;;;;;;8.70;6.03;;;13.50;99.90;;;;;;4940008;29;20110;-80
2022/06/16 03:55:58;;;;;;;8.32;6.75;;;13.50;99.90;;;;;;4939809;29;20028;-79
2022/06/16 03:58:24;;;;;;;8.45;6.85;;;13.50;99.90;;;;;;4938409;29;20028;-80
2022/06/16 04:00:50;;;;;;;9.23;6.95;;;13.50;99.90;;;;;;4938300;29;20042;-79
2022/06/16 04:06:01;;;;;;;9.18;7.82;;;13.60;99.90;;;;;;4939682;29;20046;-79
2022/06/16 04:08:27;;;;;;;7.28;6.53;;;13.60;99.90;;;;;;4939542;29;20032;-79
2022/06/16 04:10:52;;;;;;;7.82;6.68;;;13.70;99.90;;;;;;4938082;29;20139;-79
2022/06/16 04:13:19;;;;;;;9.88;6.97;;;13.70;99.90;;;;;;4938461;29;20032;-79
2022/06/16 04:15:44;;;;;;;8.23;7.13;;;13.80;99.90;;;;;;4939473;29;20461;-79
2022/06/16 04:18:10;;;;;;;9.70;6.70;;;13.80;99.90;;;;;;4939368;29;20079;-80
2022/06/16 04:20:36;;;;;;;14.65;6.90;;;13.90;99.90;;;;;;4939350;29;20035;-80
2022/06/16 04:23:02;;;;;;;9.70;6.97;;;14.00;99.90;;;;;;4938143;29;20067;-79
2022/06/16 04:25:31;;;;;;;8.05;6.88;;;14.10;99.90;;;;;;4939041;29;20122;-76
2022/06/16 04:28:01;;;;;;;8.73;6.60;;;14.10;99.90;;;;;;4937907;29;20043;-75
2022/06/16 04:30:28;;;;;;;9.07;6.53;;;14.20;99.90;;;;;;4937917;29;20040;-76
2022/06/16 04:32:53;;;;;;;8.98;6.60;;;14.20;99.90;;;;;;4937697;29;20027;-76
2022/06/16 04:35:19;;;;;;;8.30;6.30;;;14.30;99.90;;;;;;4937783;29;20535;-76
2022/06/16 04:37:45;;;;;;;7.40;6.55;;;14.40;99.90;;;;;;4938495;29;20087;-76
2022/06/16 04:40:12;;;;;;;8.32;6.35;;;14.50;99.90;;;;;;4937795;29;20058;-77
2022/06/16 04:42:37;;;;;;;7.10;6.22;;;14.60;99.90;;;;;;4939411;29;20038;-78
2022/06/16 04:45:04;;;;;;;8.93;6.07;;;14.60;99.90;;;;;;4938827;29;20023;-78
2022/06/16 04:47:30;;;;;;;8.60;6.38;;;14.60;99.90;;;;;;4938850;29;20060;-76
2022/06/16 04:49:56;;;;;;;8.25;5.30;;;14.70;99.90;;;;;;4937386;29;20062;-78
2022/06/16 04:52:21;;;;;;;7.57;6.22;;;14.80;99.90;;;;;;4937487;29;20024;-77
2022/06/16 04:54:48;;;;;;;7.05;6.18;;;14.80;99.90;;;;;;4939229;29;20397;-79
2022/06/16 04:57:14;;;;;;;7.50;5.88;;;14.90;99.90;;;;;;4938674;29;20056;-76
2022/06/16 04:59:41;;;;;;;9.10;5.82;;;15.00;99.90;;;;;;4938340;29;20032;-76
2022/06/16 05:02:07;;;;;;;6.85;5.68;;;15.00;99.90;;;;;;4938474;29;20036;-79
2022/06/16 05:04:34;;;;;;;9.85;6.13;;;15.20;99.90;;;;;;4938300;29;20028;-79
2022/06/16 05:07:01;;;;;;;10.32;5.55;;;15.20;99.90;;;;;;4938432;29;20451;-79
2022/06/16 05:09:26;;;;;;;8.80;6.32;;;15.30;99.90;;;;;;4937348;29;20032;-60
2022/06/16 05:11:52;;;;;;;9.77;6.22;;;15.40;99.90;;;;;;4938666;29;20031;-60
2022/06/16 05:14:17;;;;;;;6.88;6.32;;;15.50;99.90;;;;;;4936984;29;20028;-60
2022/06/16 05:16:43;;;;;;;7.95;5.40;;;15.60;99.90;;;;;;4937987;29;20032;-60
2022/06/16 05:19:09;;;;;;;8.95;6.28;;;15.70;99.90;;;;;;4938268;29;20039;-80
2022/06/16 05:21:34;;;;;;;7.35;5.65;;;15.80;99.90;;;;;;4938133;29;20028;-81
2022/06/16 05:24:00;;;;;;;8.43;5.70;;;15.90;99.90;;;;;;4938412;29;20064;-80
2022/06/16 05:26:28;;;;;;;7.28;6.25;;;16.10;99.90;;;;;;4937740;29;20052;-79
2022/06/16 05:28:54;;;;;;;10.75;6.13;;;16.20;99.90;;;;;;4936686;29;20119;-81
2022/06/16 05:31:19;;;;;;;6.78;6.07;;;16.30;99.90;;;;;;4938091;29;20079;-80
2022/06/16 05:33:45;;;;;;;9.35;6.57;;;16.50;99.90;;;;;;4936847;29;20043;-81
2022/06/16 05:36:13;;;;;;;8.88;6.78;;;16.70;99.90;;;;;;4936737;29;20122;-81
2022/06/16 05:38:39;;;;;;;11.23;6.70;;;17.00;99.90;;;;;;4937929;29;20028;-79
2022/06/16 05:41:07;;;;;;;9.40;5.97;;;17.30;99.90;;;;;;4938128;29;20032;-81
2022/06/16 05:43:34;;;;;;;10.00;5.78;;;17.50;99.90;;;;;;4936883;29;20031;-82
2022/06/16 05:46:00;;;;;;;7.10;5.80;;;17.60;99.90;;;;;;4937953;29;20028;-82
2022/06/16 05:48:26;;;;;;;9.48;5.50;;;17.80;99.90;;;;;;4936516;29;20381;-83
2022/06/16 05:50:52;;;;;;;12.25;6.93;;;18.00;99.90;;;;;;4937101;29;20035;-76
2022/06/16 05:53:18;;;;;;;12.93;6.78;;;18.10;99.90;;;;;;4936167;29;20103;-76
2022/06/16 05:55:44;;;;;;;8.05;6.00;;;18.20;99.90;;;;;;4936203;29;20472;-79
2022/06/16 05:58:10;;;;;;;7.45;5.65;;;18.30;99.90;;;;;;4937724;29;20035;-78
2022/06/16 06:00:35;;;;;;;7.68;6.10;;;18.50;99.90;;;;;;4937243;29;20035;-78
2022/06/16 06:03:01;;;;;;;6.38;5.72;;;18.60;99.90;;;;;;4936165;29;20468;-77
2022/06/16 06:05:28;;;;;;;7.45;5.95;;;18.70;99.90;;;;;;4937368;29;20028;-77
2022/06/16 06:19:23;;;;;;;7.57;5.05;;;19.80;99.90;;;;;;4937201;29;20528;-74
2022/06/16 06:22:01;;;;;;;5.30;4.80;;;20.30;99.90;;;;;;4936601;29;20532;-75
2022/06/16 06:24:32;;;;;;;9.05;4.78;;;21.00;99.90;;;;;;4937041;29;20038;-74
2022/06/16 06:27:01;;;;;;;5.20;4.22;;;21.60;99.90;;;;;;4936605;29;20094;-75
2022/06/16 06:29:27;;;;;;;;;;;22.10;99.90;;;;;;4937445;29;20111;-72
2022/06/16 06:31:53;;;;;;;5.55;3.72;;;22.50;99.90;;;;;;4936984;29;20333;-72
2022/06/16 06:34:18;;;;;;;5.53;4.10;;;22.80;99.90;;;;;;4937120;29;20456;-72
2022/06/16 06:36:44;;;;;;;7.07;3.55;;;23.10;99.90;;;;;;4936527;29;20036;-75
2022/06/16 06:39:12;;;;;;;4.45;3.60;;;23.30;99.90;;;;;;4935377;29;20366;-70
2022/06/16 06:41:38;;;;;;;4.17;3.57;;;23.60;99.90;;;;;;4936694;29;20032;-72
2022/06/16 06:44:04;;;;;;;5.65;3.35;;;23.80;99.90;;;;;;4935417;29;20039;-75
2022/06/16 06:46:30;;;;;;;5.38;3.35;;;24.00;99.90;;;;;;4936838;29;20024;-76
2022/06/16 06:48:55;;;;;;;5.25;3.60;;;24.20;99.90;;;;;;4936647;29;20494;-77
2022/06/16 06:51:21;;;;;;;5.80;3.55;;;24.40;99.90;;;;;;4936655;29;20043;-77
2022/06/16 06:53:46;;;;;;;5.63;3.65;;;24.50;99.90;;;;;;4936433;29;20448;-79
2022/06/16 06:56:13;;;;;;;5.03;3.28;;;24.70;99.90;;;;;;4936592;29;20044;-80
2022/06/16 06:58:39;;;;;;;4.25;3.67;;;25.00;99.90;;;;;;4936590;29;20433;-79
2022/06/16 07:01:06;;;;;;;8.45;4.03;;;25.20;99.90;;;;;;4936256;29;20071;-77
2022/06/16 07:03:32;;;;;;;6.78;3.67;;;25.40;98.70;;;;;;4936018;29;20390;-77
2022/06/16 07:06:01;;;;;;;6.00;3.17;;;25.50;98.40;;;;;;4936355;29;20024;-79
2022/06/16 07:08:28;;;;;;;6.15;3.95;;;25.40;98.20;;;;;;4936378;29;20020;-79
2022/06/16 07:10:53;;;;;;;6.13;3.45;;;25.40;98.20;;;;;;4936146;29;20492;-78
2022/06/16 07:13:19;;;;;;;3.42;3.13;;;25.60;97.70;;;;;;4936749;29;20068;-74
2022/06/16 07:15:46;;;;;;;5.60;3.70;;;25.90;96.70;;;;;;4936435;29;20502;-74
2022/06/16 07:18:12;;;;;;;4.65;3.45;;;26.10;95.40;;;;;;4936402;29;20066;-75
2022/06/16 07:20:38;;;;;;;5.72;3.25;;;26.30;94.10;;;;;;4935078;29;20038;-80
2022/06/16 07:23:04;;;;;;;3.35;2.83;;;26.40;93.90;;;;;;4935582;29;20035;-74
2022/06/16 07:25:29;;;;;;;3.95;3.00;;;26.60;93.20;;;;;;4936261;29;20059;-73
2022/06/16 07:27:56;;;;;;;4.38;3.20;;;26.70;92.70;;;;;;4936115;29;20482;-77
2022/06/16 07:30:23;;;;;;;7.95;3.50;;;26.80;91.50;;;;;;4936159;29;20457;-72
2022/06/16 07:32:50;;;;;;;4.20;3.15;;;27.00;90.70;;;;;;4936282;29;20055;-63
2022/06/16 07:35:18;;;;;;;4.25;2.97;;;27.20;90.30;;;;;;4934740;29;20107;-76
2022/06/16 07:37:44;;;;;;;5.40;3.58;;;27.50;89.40;;;;;;4924120;29;20392;-76
2022/06/16 07:40:13;;;;;;;5.68;3.00;;;27.60;88.10;;;;;;4917178;29;20035;-78
2022/06/16 07:42:39;;;;;;;5.53;3.25;;;27.90;84.10;;;;;;4916924;29;20399;-76
2022/06/16 07:45:06;;;;;;;4.20;2.80;;;28.00;83.10;;;;;;4917015;29;20029;-76
2022/06/16 07:47:31;;;;;;;3.13;2.90;;;28.00;81.80;;;;;;4917119;29;20489;-80
2022/06/16 07:49:57;;;;;;;4.85;3.30;;;28.20;81.30;;;;;;4917190;29;20105;-73
2022/06/16 07:52:23;;;;;;;3.20;2.90;;;28.40;78.90;;;;;;4917286;29;20032;-73
2022/06/16 07:54:49;;;;;;;6.57;3.47;;;28.60;78.70;;;;;;4916785;29;20095;-75
2022/06/16 07:57:16;;;;;;;10.02;3.08;;;28.60;77.70;;;;;;4917167;29;20028;-73
2022/06/16 07:59:42;;;;;;;5.47;2.92;;;28.90;77.10;;;;;;4917222;29;20092;-77
2022/06/16 08:02:08;;;;;;;5.90;3.60;;;29.10;75.50;;;;;;4916922;29;20074;-77
2022/06/16 08:04:34;;;;;;;4.72;3.00;;;29.10;74.10;;;;;;4917460;29;20064;-76
2022/06/16 08:07:02;;;;;;;7.15;3.17;;;29.40;72.50;;;;;;4917075;29;20036;-75
2022/06/16 08:09:31;;;;;;;4.95;3.30;;;29.60;70.90;;;;;;4916922;29;20075;-70
2022/06/16 08:12:03;;;;;;;2.78;2.58;;;29.50;71.00;;;;;;4917273;29;20043;-76
2022/06/16 08:14:30;;;;;;;3.20;2.90;;;29.60;70.30;;;;;;4920825;29;20028;-70
2022/06/16 08:16:56;;;;;;;4.45;2.85;;;29.60;69.60;;;;;;4920470;29;20122;-72
2022/06/16 08:19:22;;;;;;;4.22;3.08;;;29.20;70.70;;;;;;4920515;29;20035;-72
2022/06/16 08:21:48;;;;;;;3.58;2.80;;;29.30;72.10;;;;;;4920117;29;20032;-62
2022/06/16 08:24:14;;;;;;;3.10;2.90;;;29.60;70.60;;;;;;4920181;29;20028;-75
2022/06/16 08:26:41;;;;;;;5.10;2.90;;;29.50;69.00;;;;;;4918426;29;20408;-74
2022/06/16 08:29:10;;;;;;;3.88;3.42;;;29.60;69.90;;;;;;4920154;29;20035;-74
2022/06/16 08:31:36;;;;;;;4.88;3.50;;;29.40;68.80;;;;;;4918760;29;20046;-74
2022/06/16 08:34:01;;;;;;;5.50;3.10;;;29.20;69.50;;;;;;4919997;29;20103;-74
2022/06/16 08:36:27;;;;;;;4.82;3.13;;;28.90;71.00;;;;;;4920160;29;20063;-73
2022/06/16 08:38:53;;;;;;;5.22;3.20;;;28.40;71.50;;;;;;4919981;29;20480;-75
2022/06/16 08:41:28;;;;;;;4.53;3.58;;;28.70;71.90;;;;;;4919832;29;20091;-74
2022/06/16 08:44:08;;;;;;;4.68;3.58;;;29.10;71.80;;;;;;4918776;29;20043;-75
2022/06/16 08:46:38;;;;;;;6.45;3.08;;;29.10;70.10;;;;;;4919854;29;20071;-74
2022/06/16 08:49:26;;;;;;;7.15;2.97;;;29.70;69.80;;;;;;4919916;29;20032;-75
2022/06/16 08:52:00;;;;;;;6.97;4.03;;;30.10;68.00;;;;;;4919856;29;20032;-74
2022/06/16 08:55:03;;;;;;;5.60;3.13;;;29.70;67.00;;;;;;4919302;29;20036;-65
2022/06/16 08:57:35;;;;;;;4.25;3.40;;;30.30;66.60;;;;;;4919579;29;20043;-73
2022/06/16 09:00:11;;;;;;;4.18;3.30;;;30.60;64.90;;;;;;4919840;29;20039;-75
2022/06/16 09:03:05;;;;;;;6.63;3.28;;;30.70;64.50;;;;;;4919585;29;20047;-73
2022/06/16 09:05:37;;;;;;;6.00;3.58;;;30.60;63.10;;;;;;4919400;29;20032;-73
2022/06/16 09:08:19;;;;;;;3.90;3.55;;;29.80;66.30;;;;;;4919542;29;20480;-71
2022/06/16 09:11:07;;;;;;;5.97;3.17;;;29.60;65.60;;;;;;4919423;29;20040;-73
2022/06/16 09:13:47;;;;;;;4.40;3.40;;;29.90;67.10;;;;;;4919093;29;20046;-75
2022/06/16 09:16:38;;;;;;;8.70;3.80;;;29.80;66.50;;;;;;4919403;29;20025;-64
2022/06/16 09:19:34;;;;;;;9.07;3.40;;;29.70;67.70;;;;;;4919008;29;20071;-63
2022/06/16 09:22:22;;;;;;;5.53;3.55;;;30.20;67.00;;;;;;4919102;29;20469;-62
2022/06/16 09:25:07;;;;;;;6.18;3.40;;;30.70;64.40;;;;;;4906754;29;20044;-63
2022/06/16 09:28:04;;;;;;;4.03;2.75;;;31.00;64.00;;;;;;4917766;29;20047;-65
2022/06/16 09:30:36;;;;;;;4.03;2.90;;;31.20;64.00;;;;;;4918959;29;20029;-63
2022/06/16 09:33:10;;;;;;;7.85;3.00;;;31.20;63.10;;;;;;4919067;29;20024;-65
2022/06/16 09:35:58;;;;;;;3.58;3.28;;;31.80;62.20;;;;;;4917583;29;20035;-64
2022/06/16 09:38:29;;;;;;;4.68;3.15;;;30.80;61.50;;;;;;4917487;29;20138;-63
2022/06/16 09:41:03;;;;;;;5.20;3.28;;;30.30;63.00;;;;;;4918589;29;20167;-64
2022/06/16 09:43:42;;;;;;;3.70;3.20;;;29.90;62.90;;;;;;4918645;29;20469;-63
2022/06/16 09:46:11;;;;;;;;;;;30.40;64.00;;;;;;4919078;29;20028;-64
2022/06/16 09:49:00;;;;;;;4.30;3.10;;;30.40;64.30;;;;;;4918507;29;19914;-64
2022/06/16 09:51:40;;;;;;;7.25;2.90;;;30.60;64.20;;;;;;4917711;29;20122;-64
2022/06/16 09:54:17;;;;;;;3.22;2.85;;;30.70;64.00;;;;;;4917230;29;20516;-64
2022/06/16 09:57:04;;;;;;;3.65;2.38;;;30.90;64.40;;;;;;4918470;29;20052;-64
2022/06/16 09:59:41;;;;;;;5.80;3.10;;;31.00;62.70;;;;;;4918531;29;20028;-66
2022/06/16 10:02:17;;;;;;;7.93;3.00;;;31.30;63.10;;;;;;4918242;29;20121;-64
2022/06/16 10:04:42;;;;;;;5.80;3.40;;;31.60;61.40;;;;;;4918444;29;20032;-64
2022/06/16 10:07:33;;;;;;;4.10;2.95;;;32.10;61.00;;;;;;4916939;29;20039;-65
2022/06/16 10:10:38;;;;;;;4.93;2.85;;;32.30;59.60;;;;;;4918639;29;20032;-65
2022/06/16 10:13:25;;;;;;;4.82;3.05;;;32.90;58.50;;;;;;4918244;29;20111;-65
2022/06/16 10:16:10;;;;;;;2.83;2.50;;;32.30;58.00;;;;;;4918179;29;20033;-65
2022/06/16 10:18:36;;;;;;;2.70;2.50;;;31.60;58.50;;;;;;4918204;29;20040;-65
2022/06/16 10:21:07;;;;;;;2.70;2.50;;;31.70;59.20;;;;;;4918121;29;20437;-65
2022/06/16 10:23:41;;;;;;;5.18;2.70;;;31.70;59.50;;;;;;4917993;29;20036;-65
2022/06/16 10:26:08;;;;;;;5.50;2.83;;;31.50;59.60;;;;;;4918004;29;20088;-65
2022/06/16 10:28:59;;;;;;;3.60;2.80;;;31.80;58.80;;;;;;4917695;29;20111;-68
2022/06/16 10:31:45;;;;;;;4.38;2.72;;;32.20;57.60;;;;;;4918020;29;20036;-67
2022/06/16 10:34:31;;;;;;;5.65;2.80;;;32.20;59.50;;;;;;4917576;29;20499;-67
2022/06/16 10:37:15;;;;;;;2.85;2.33;;;32.60;58.30;;;;;;4899974;29;20056;-68
2022/06/16 10:39:49;;;;;;;3.60;2.15;;;34.00;55.90;;;;;;4917767;29;20602;-67
2022/06/16 10:42:18;;;;;;;6.85;2.53;;;34.40;52.50;;;;;;4917388;29;20416;-69
2022/06/16 10:44:58;;;;;;;4.57;2.25;;;34.60;51.80;;;;;;4917574;29;20028;-70
2022/06/16 10:47:36;;;;;;;5.78;2.40;;;34.50;51.50;;;;;;4917592;29;20381;-72
2022/06/16 10:50:04;;;;;;;2.65;2.05;;;34.00;50.50;;;;;;4901072;29;20083;-72
2022/06/16 10:52:32;;;;;;;;;;;33.40;50.50;;;;;;4918040;29;20040;-73
2022/06/16 10:55:06;;;;;;;3.05;2.60;;;33.00;52.30;;;;;;4900554;29;19957;-74
2022/06/16 10:57:40;;;;;;;3.72;2.42;;;32.60;52.80;;;;;;4918004;29;20043;-74
2022/06/16 11:00:21;;;;;;;3.88;2.38;;;32.30;53.70;;;;;;4917827;29;20049;-74
2022/06/16 11:03:08;;;;;;;3.65;2.42;;;32.50;52.80;;;;;;4917839;29;20142;-63
2022/06/16 11:05:53;;;;;;;3.60;2.53;;;31.60;53.40;;;;;;4917626;29;20025;-63
2022/06/16 11:08:20;;;;;;;4.00;2.47;;;31.50;54.90;;;;;;4917531;29;20495;-67
2022/06/16 11:10:58;;;;;;;3.83;2.35;;;32.30;58.80;;;;;;4917146;29;20493;-68
2022/06/16 11:13:29;;;;;;;;;;;33.50;52.30;;;;;;4917857;29;20032;-68
2022/06/16 11:15:55;;;;;;;6.22;2.50;;;33.50;51.90;;;;;;4900725;29;19907;-69
2022/06/16 11:18:26;;;;;;;6.00;2.42;;;33.60;50.80;;;;;;4917424;29;20035;-69
2022/06/16 11:20:56;;;;;;;3.97;2.85;;;33.30;52.00;;;;;;4917840;29;20123;-69
2022/06/16 11:23:21;;;;;;;8.82;2.50;;;33.10;51.60;;;;;;4917316;29;20033;-69
2022/06/16 11:25:52;;;;;;;2.60;2.40;;;33.60;52.30;;;;;;4904314;29;20055;-70
2022/06/16 11:28:21;;;;;;;2.03;1.83;;;34.40;51.10;;;;;;4917395;29;20024;-70
2022/06/16 11:30:47;;;;;;;;;;;35.80;48.10;;;;;;4917404;29;20408;-68
2022/06/16 11:36:44;;;;;;;3.88;2.30;;;35.00;46.20;;;;;;4917264;29;20545;-71
2022/06/16 11:39:34;;;;;;;3.00;2.17;;;35.30;46.10;;;;;;4917251;29;20056;-70
2022/06/16 11:42:00;;;;;;;2.53;1.95;;;35.20;44.30;;;;;;4917126;29;20035;-69
2022/06/16 11:45:08;;;;;;;5.22;1.90;;;34.90;44.90;;;;;;4917178;29;20389;-69
2022/06/16 11:47:42;;;;;;;4.75;1.90;;;35.40;45.40;;;;;;4919264;29;20038;-69
2022/06/16 11:50:31;;;;;;;5.93;2.08;;;35.20;44.60;;;;;;4920849;29;20036;-69
2022/06/16 11:53:27;;;;;;;3.53;2.10;;;34.10;45.80;;;;;;4921005;29;20039;-69
2022/06/16 11:55:57;;;;;;;4.57;2.20;;;34.40;46.90;;;;;;4920829;29;20032;-69
2022/06/16 11:59:03;;;;;;;4.30;1.95;;;33.60;47.70;;;;;;4919338;29;20024;-69
2022/06/16 12:01:35;;;;;;;3.05;2.13;;;33.40;48.00;;;;;;4920407;29;20032;-68
2022/06/16 12:04:10;;;;;;;2.53;1.98;;;33.10;48.70;;;;;;4920841;29;20139;-69
2022/06/16 12:07:12;;;;;;;2.97;2.08;;;33.70;47.50;;;;;;4920594;29;20028;-69
2022/06/16 12:09:55;;;;;;;3.60;2.03;;;33.70;47.30;;;;;;4920415;29;20028;-69
2022/06/16 12:12:47;;;;;;;2.72;2.22;;;33.90;47.30;;;;;;4920499;29;20032;-69
2022/06/16 12:15:31;;;;;;;4.53;2.38;;;34.20;48.60;;;;;;4920591;29;20060;-68
2022/06/16 12:18:30;;;;;;;3.58;2.13;;;35.30;47.40;;;;;;4920633;29;20028;-69
2022/06/16 12:21:22;;;;;;;2.83;2.20;;;35.10;45.00;;;;;;4920243;29;20468;-69
2022/06/16 12:23:59;;;;;;;6.60;2.05;;;35.10;46.10;;;;;;4920349;29;20036;-69
2022/06/16 12:26:33;;;;;;;2.50;2.30;;;35.70;45.90;;;;;;4919687;29;20412;-69
2022/06/16 12:29:14;;;;;;;3.25;2.00;;;35.80;44.50;;;;;;4919867;29;20354;-69
2022/06/16 12:32:05;;;;;;;7.05;2.22;;;35.70;45.00;;;;;;4903157;29;20038;-69
2022/06/16 12:34:59;;;;;;;4.57;2.28;;;35.30;44.60;;;;;;4920451;29;20036;-68
2022/06/16 12:37:29;;;;;;;3.55;2.08;;;35.80;45.00;;;;;;4919799;29;20035;-69
2022/06/16 12:40:09;;;;;;;5.60;2.20;;;36.00;44.30;;;;;;4919611;29;20533;-70
2022/06/16 12:43:10;;;;;;;2.72;1.80;;;34.70;44.10;;;;;;4919845;29;20032;-69
2022/06/16 12:45:42;;;;;;;5.00;1.77;;;34.40;44.80;;;;;;4867392;29;20501;-69
2022/06/16 12:48:18;;;;;;;3.70;1.83;;;35.60;44.40;;;;;;4919536;29;20028;-69
2022/06/16 12:50:53;;;;;;;2.47;2.20;;;35.90;43.00;;;;;;4920180;29;20119;-69
2022/06/16 12:53:39;;;;;;;2.70;1.90;;;36.10;42.80;;;;;;4919779;29;20115;-69
2022/06/16 12:56:29;;;;;;;3.58;2.35;;;36.00;43.20;;;;;;4919782;29;20491;-68
2022/06/16 12:59:01;;;;;;;5.15;2.00;;;35.90;42.80;;;;;;4919006;29;20036;-68
2022/06/16 13:01:27;;;;;;;3.00;2.25;;;35.80;41.60;;;;;;4919692;29;20377;-69
2022/06/16 13:04:00;;;;;;;2.25;2.00;;;36.10;43.90;;;;;;4902548;29;20036;-69
2022/06/16 13:06:27;;;;;;;2.53;1.88;;;36.30;42.00;;;;;;4919241;29;20388;-69
2022/06/16 13:08:56;;;;;;;4.53;2.45;;;36.20;41.50;;;;;;4919200;29;20042;-68
2022/06/16 13:11:34;;;;;;;3.00;2.25;;;35.70;41.80;;;;;;4919242;29;20032;-68
2022/06/16 13:14:05;;;;;;;2.70;1.92;;;34.20;44.20;;;;;;4919009;29;20358;-68
2022/06/16 13:16:35;;;;;;;2.50;2.08;;;33.10;47.30;;;;;;4919464;29;20358;-69
2022/06/16 13:19:19;;;;;;;2.20;1.98;;;33.50;45.90;;;;;;4919270;29;20073;-69
2022/06/16 13:21:57;;;;;;;3.80;1.98;;;34.50;44.80;;;;;;4902096;29;20036;-68
2022/06/16 13:24:50;;;;;;;2.42;1.95;;;35.10;44.50;;;;;;4919169;29;20049;-67
2022/06/16 13:27:38;;;;;;;3.13;2.15;;;35.20;43.80;;;;;;4919013;29;20040;-68
2022/06/16 13:30:09;;;;;;;2.10;2.00;;;34.10;44.30;;;;;;4919441;29;20032;-67
2022/06/16 13:32:37;;;;;;;4.05;1.58;;;34.00;46.90;;;;;;4918803;29;20115;-68
2022/06/16 13:35:11;;;;;;;2.40;2.00;;;34.10;48.80;;;;;;4918860;29;20155;-67